Time;durP1;ratioP1;P1;durP2;ratioP2;P2;SDS_P1;SDS_P2;PMS_P1;PMS_P2;Temp;Humidity;BMP_temperature;BMP_pressure;BME280_temperature;BME280_humidity;BME280_pressure;Samples;Min_cycle;Max_cycle;Signal;HPM_P1;HPM_P2
2022/06/25 00:00:31;;;;;;;5.80;3.72;;;;;;;28.43;nan;100708.69;5028652;28;20036;-68
2022/06/25 00:02:56;;;;;;;4.63;3.80;;;;;;;28.44;nan;100712.25;5028453;28;20384;-68
2022/06/25 00:05:27;;;;;;;4.60;3.55;;;;;;;28.43;nan;100721.25;5027799;28;20104;-68
2022/06/25 00:07:53;;;;;;;4.40;3.80;;;;;;;28.42;nan;100719.56;5029767;28;20041;-68
2022/06/25 00:10:18;;;;;;;4.10;3.70;;;;;;;28.41;nan;100716.00;5028295;28;20068;-68
2022/06/25 00:12:44;;;;;;;4.10;3.40;;;;;;;28.44;nan;100723.84;5029056;28;20026;-69
2022/06/25 00:15:10;;;;;;;4.40;3.45;;;;;;;28.45;nan;100727.38;5029584;28;20719;-69
2022/06/25 00:17:35;;;;;;;5.00;3.67;;;;;;;28.44;nan;100720.28;5029747;28;20057;-68
2022/06/25 00:20:02;;;;;;;4.57;3.67;;;;;;;28.43;nan;100722.09;5029323;28;20044;-68
2022/06/25 00:22:27;;;;;;;4.57;3.78;;;;;;;28.43;nan;100726.59;5029268;28;20022;-69
2022/06/25 00:24:53;;;;;;;4.28;3.70;;;;;;;28.44;nan;100722.97;5028578;28;20052;-69
2022/06/25 00:27:18;;;;;;;5.78;3.70;;;;;;;28.42;nan;100722.22;5028893;28;20392;-68
2022/06/25 00:29:43;;;;;;;4.05;3.50;;;;;;;28.42;nan;100723.06;5029144;28;20114;-68
2022/06/25 00:32:09;;;;;;;6.65;3.60;;;;;;;28.40;nan;100722.31;5029129;28;20030;-68
2022/06/25 00:34:36;;;;;;;4.55;3.47;;;;;;;28.40;nan;100722.31;5028663;28;20037;-69
2022/06/25 00:37:01;;;;;;;4.40;3.92;;;;;;;28.42;nan;100724.91;5029253;28;20040;-68
2022/06/25 00:39:26;;;;;;;5.07;3.70;;;;;;;28.40;nan;100725.00;5028767;28;20595;-68
2022/06/25 00:41:52;;;;;;;4.00;3.60;;;;;;;28.40;nan;100726.81;5027022;28;20045;-68
2022/06/25 00:44:17;;;;;;;4.78;3.65;;;;;;;28.36;nan;100719.94;5029236;28;20033;-68
2022/06/25 00:46:47;;;;;;;3.95;3.30;;;;;;;28.37;nan;100725.19;5028931;28;20029;-69
2022/06/25 00:49:12;;;;;;;4.00;3.50;;;;;;;28.36;nan;100727.97;5028654;28;20038;-68
2022/06/25 00:51:40;;;;;;;6.68;3.58;;;;;;;28.34;nan;100722.72;5028415;28;20092;-68
2022/06/25 00:54:09;;;;;;;4.85;3.50;;;;;;;28.34;nan;100721.84;5029074;28;20820;-68
2022/06/25 00:56:43;;;;;;;3.90;3.50;;;;;;;28.35;nan;100724.44;5029075;28;20033;-69
2022/06/25 00:59:10;;;;;;;3.80;3.22;;;;;;;28.34;nan;100721.84;5029006;28;20034;-68
2022/06/25 01:01:35;;;;;;;3.60;3.30;;;;;;;28.39;nan;100730.44;5028414;28;20112;-67
2022/06/25 01:04:02;;;;;;;3.83;3.33;;;;;;;28.39;nan;100731.31;5028657;28;20055;-68
2022/06/25 01:06:30;;;;;;;4.18;3.40;;;;;;;28.39;nan;100731.31;5028765;28;20210;-68
2022/06/25 01:08:57;;;;;;;3.97;3.40;;;;;;;28.38;nan;100743.00;5027977;28;20052;-68
2022/06/25 01:11:23;;;;;;;4.30;3.50;;;;;;;28.35;nan;100737.84;5028564;28;20456;-68
2022/06/25 01:13:49;;;;;;;4.40;3.55;;;;;;;28.36;nan;100744.91;5028714;28;20049;-68
2022/06/25 01:16:14;;;;;;;3.60;3.20;;;;;;;28.36;nan;100739.53;5028747;28;20072;-68
2022/06/25 01:18:39;;;;;;;3.80;3.40;;;;;;;28.36;nan;100739.53;5010378;28;20037;-68
2022/06/25 01:21:05;;;;;;;3.97;3.45;;;;;;;28.35;nan;100742.34;5028023;28;20588;-68
2022/06/25 01:23:30;;;;;;;3.53;3.10;;;;;;;28.35;nan;100736.97;5028350;28;20033;-68
2022/06/25 01:25:56;;;;;;;5.38;3.55;;;;;;;28.34;nan;100741.47;5028588;28;20052;-68
2022/06/25 01:28:21;;;;;;;4.28;3.30;;;;;;;28.33;nan;100738.88;5028654;28;20104;-68
2022/06/25 01:30:47;;;;;;;4.18;3.35;;;;;;;28.30;nan;100750.66;5028237;28;20056;-68
2022/06/25 01:33:12;;;;;;;4.22;3.40;;;;;;;28.28;nan;100747.22;5028313;28;20055;-68
2022/06/25 01:35:37;;;;;;;3.75;3.33;;;;;;;28.23;nan;100746.66;5027071;28;20500;-68
2022/06/25 01:38:03;;;;;;;4.15;3.47;;;;;;;28.21;nan;100743.19;5028056;28;20030;-69
2022/06/25 01:40:31;;;;;;;4.38;3.42;;;;;;;28.22;nan;100742.22;5029980;28;20124;-68
2022/06/25 01:42:59;;;;;;;3.20;2.90;;;;;;;28.23;nan;100742.16;5032166;28;20034;-68
2022/06/25 01:45:36;;;;;;;3.55;3.17;;;;;;;28.24;nan;100746.53;5032339;28;20033;-68
2022/06/25 01:48:03;;;;;;;3.60;2.97;;;;;;;28.23;nan;100750.19;5031928;28;20025;-69
2022/06/25 01:50:30;;;;;;;3.42;3.10;;;;;;;28.21;nan;100746.72;5031727;28;20112;-68
2022/06/25 01:52:56;;;;;;;3.70;3.28;;;;;;;28.21;nan;100746.72;5032320;28;20022;-68
2022/06/25 01:55:21;;;;;;;3.90;3.40;;;;;;;28.21;nan;100749.41;5031906;28;20028;-68
2022/06/25 01:57:48;;;;;;;4.38;3.30;;;;;;;28.21;nan;100760.13;5032025;28;20402;-69
2022/06/25 02:00:18;;;;;;;4.13;3.30;;;;;;;28.19;nan;100761.19;5031742;28;20460;-68
2022/06/25 02:02:44;;;;;;;3.70;3.08;;;;;;;28.18;nan;100770.16;5031820;28;20465;-68
2022/06/25 02:05:12;;;;;;;4.00;3.30;;;;;;;28.17;nan;100774.69;5030397;28;20456;-68
2022/06/25 02:07:38;;;;;;;3.33;3.03;;;;;;;28.17;nan;100777.38;5031950;28;20388;-68
2022/06/25 02:10:04;;;;;;;3.38;3.08;;;;;;;28.19;nan;100782.63;5031862;28;20041;-68
2022/06/25 02:12:29;;;;;;;3.22;2.92;;;;;;;28.18;nan;100780.88;5031748;28;20357;-69
2022/06/25 02:14:55;;;;;;;3.35;3.05;;;;;;;28.19;nan;100774.56;5031935;28;20488;-68
2022/06/25 02:17:20;;;;;;;3.40;3.10;;;;;;;28.19;nan;100778.13;5031900;28;20693;-68
2022/06/25 02:19:46;;;;;;;3.20;2.90;;;;;;;28.17;nan;100785.41;5031295;28;20049;-68
2022/06/25 02:22:14;;;;;;;3.25;2.95;;;;;;;28.16;nan;100789.03;5031166;28;20176;-68
2022/06/25 02:24:44;;;;;;;3.35;2.85;;;;;;;28.17;nan;100787.22;5031651;28;20025;-69
2022/06/25 02:27:10;;;;;;;3.92;3.00;;;;;;;28.18;nan;100791.63;5031463;28;20133;-68
2022/06/25 02:29:35;;;;;;;4.70;2.90;;;;;;;28.22;nan;100785.13;5031383;28;20120;-68
2022/06/25 02:32:01;;;;;;;3.45;3.08;;;;;;;28.20;nan;100787.91;5031215;28;20537;-68
2022/06/25 02:34:27;;;;;;;3.30;3.00;;;;;;;28.21;nan;100784.25;5030363;28;20026;-68
2022/06/25 02:36:52;;;;;;;3.72;3.10;;;;;;;28.19;nan;100787.97;5031169;28;20048;-68
2022/06/25 02:39:18;;;;;;;3.53;2.90;;;;;;;28.21;nan;100796.81;5029501;28;20061;-68
2022/06/25 02:41:44;;;;;;;3.83;3.17;;;;;;;28.19;nan;100794.22;5030415;28;20377;-68
2022/06/25 02:44:09;;;;;;;3.22;2.90;;;;;;;28.19;nan;100796.03;5029699;28;20061;-68
2022/06/25 02:46:35;;;;;;;3.33;2.75;;;;;;;28.19;nan;100793.34;5028646;28;20412;-68
2022/06/25 02:49:01;;;;;;;3.00;2.70;;;;;;;28.18;nan;100797.84;5029873;28;20091;-68
2022/06/25 02:51:27;;;;;;;3.42;3.00;;;;;;;28.15;nan;100808.75;5029477;28;20033;-68
2022/06/25 02:53:52;;;;;;;3.28;2.70;;;;;;;28.14;nan;100807.03;5029820;28;20017;-68
2022/06/25 02:59:03;;;;;;;2.95;2.65;;;;;;;28.11;nan;100804.53;5030164;28;20499;-68
2022/06/25 03:01:29;;;;;;;3.05;2.65;;;;;;;28.11;nan;100806.34;5028380;28;20026;-68
2022/06/25 03:03:56;;;;;;;3.20;2.78;;;;;;;28.10;nan;100808.16;5029826;28;20459;-68
2022/06/25 03:06:22;;;;;;;3.67;2.90;;;;;;;28.12;nan;100810.72;5029282;28;20037;-68
2022/06/25 03:08:48;;;;;;;3.30;3.00;;;;;;;28.12;nan;100811.59;5029449;28;20110;-68
2022/06/25 03:11:13;;;;;;;4.85;2.83;;;;;;;28.15;nan;100810.56;5029900;28;20638;-68
2022/06/25 03:13:39;;;;;;;2.90;2.60;;;;;;;28.10;nan;100810.84;5029466;28;20026;-68
2022/06/25 03:16:05;;;;;;;3.00;2.70;;;;;;;28.12;nan;100813.41;5029279;28;20061;-68
2022/06/25 03:18:32;;;;;;;3.97;2.65;;;;;;;28.11;nan;100803.66;5028896;28;20033;-68
2022/06/25 03:20:57;;;;;;;2.55;2.35;;;;;;;28.11;nan;100804.53;5029483;28;20479;-68
2022/06/25 03:23:22;;;;;;;3.05;2.70;;;;;;;28.10;nan;100801.94;5027539;28;20040;-68
2022/06/25 03:25:48;;;;;;;3.10;2.80;;;;;;;28.10;nan;100807.28;5027649;28;20503;-68
2022/06/25 03:28:14;;;;;;;3.00;2.70;;;;;;;28.11;nan;100809.00;5029225;28;20506;-67
2022/06/25 03:30:39;;;;;;;3.00;2.70;;;;;;;28.07;nan;100807.44;5029301;28;20039;-68
2022/06/25 03:33:05;;;;;;;2.85;2.50;;;;;;;28.09;nan;100808.22;5029207;28;20536;-68
2022/06/25 03:35:30;;;;;;;2.90;2.63;;;;;;;28.07;nan;100820.84;5029368;28;20044;-68
2022/06/25 03:37:56;;;;;;;3.00;2.63;;;;;;;28.07;nan;100821.72;5029651;28;20431;-68
2022/06/25 03:40:49;;;;;;;2.67;2.47;;;;;;;28.02;45.18;100815.78;5106050;27;20395;-67
2022/06/25 03:43:15;;;;;;;3.00;2.70;;;;;;;28.01;44.75;100818.53;5106096;28;20036;-67
2022/06/25 03:45:40;;;;;;;2.72;2.50;;;;;;;28.01;45.06;100815.88;5106178;28;20036;-67
2022/06/25 03:48:06;;;;;;;2.88;2.58;;;;;;;28.00;45.23;100824.84;5106111;28;20035;-67
2022/06/25 03:50:33;;;;;;;2.92;2.63;;;;;;;27.99;45.10;100823.16;5105221;28;20035;-67
2022/06/25 03:52:58;;;;;;;2.60;2.40;;;;;;;27.99;45.06;100828.50;5105942;28;20046;-67
2022/06/25 03:55:24;;;;;;;3.22;2.60;;;;;;;27.98;44.97;100824.09;5105873;28;20541;-67
2022/06/25 03:57:49;;;;;;;4.20;2.65;;;;;;;27.97;44.74;100827.72;5105998;28;20036;-67
2022/06/25 04:00:15;;;;;;;3.08;2.50;;;;;;;27.98;44.74;100832.13;5125332;28;20030;-67
2022/06/25 04:02:40;;;;;;;2.80;2.50;;;;;;;27.97;44.80;100833.97;5125872;27;20050;-66
2022/06/25 04:05:06;;;;;;;2.95;2.65;;;;;;;27.97;45.10;100838.44;5126185;27;20038;-67
2022/06/25 04:07:32;;;;;;;2.92;2.50;;;;;;;27.96;44.99;100832.22;5108010;27;20089;-67
2022/06/25 04:09:57;;;;;;;2.90;2.60;;;;;;;27.96;44.97;100840.25;5106344;28;20032;-67
2022/06/25 04:12:24;;;;;;;2.90;2.60;;;;;;;27.94;44.92;100836.81;5126191;27;20362;-67
2022/06/25 04:14:49;;;;;;;3.08;2.58;;;;;;;27.93;44.71;100836.91;5110108;28;20034;-67
2022/06/25 04:17:14;;;;;;;2.72;2.40;;;;;;;27.95;44.66;100848.38;5108113;28;20106;-67
2022/06/25 04:19:40;;;;;;;3.45;2.30;;;;;;;27.94;44.94;100849.34;5090942;28;20031;-67
2022/06/25 04:22:14;;;;;;;2.85;2.30;;;;;;;27.90;45.18;100848.66;5114570;28;20020;-67
2022/06/25 04:24:42;;;;;;;2.58;2.38;;;;;;;27.89;44.59;100851.44;5105398;28;20031;-67
2022/06/25 04:29:03;;;;;;;3.30;2.28;;;;;;;27.89;44.81;100846.94;5105194;28;20462;-67
2022/06/25 04:29:53;;;;;;;2.58;2.30;;;;;;;27.87;45.02;100856.91;5111118;28;20043;-67
2022/06/25 04:32:18;;;;;;;2.60;2.40;;;;;;;27.88;44.86;100855.91;5106978;28;20058;-67
2022/06/25 04:34:43;;;;;;;3.15;2.33;;;;;;;27.86;44.93;100855.16;5108913;28;20055;-67
2022/06/25 04:37:09;;;;;;;3.00;2.40;;;;;;;27.87;44.96;100861.41;5107217;28;20039;-67
2022/06/25 04:39:34;;;;;;;2.55;2.35;;;;;;;27.88;44.84;100866.63;5112440;27;20089;-67
2022/06/25 04:41:59;;;;;;;2.65;2.22;;;;;;;27.90;44.82;100866.56;5103710;28;20039;-67
2022/06/25 04:44:25;;;;;;;2.67;2.30;;;;;;;27.90;44.41;100866.56;5104955;28;20485;-67
2022/06/25 04:46:50;;;;;;;2.58;2.38;;;;;;;27.88;44.76;100869.31;5113701;28;20114;-67
2022/06/25 04:49:15;;;;;;;2.83;2.40;;;;;;;27.90;44.52;100861.19;5124970;27;20027;-67
2022/06/25 04:51:41;;;;;;;2.55;2.35;;;;;;;27.89;44.79;100867.50;5114278;27;20042;-67
2022/06/25 04:54:06;;;;;;;3.45;2.30;;;;;;;27.88;44.58;100871.13;5107200;28;20111;-67
2022/06/25 04:56:31;;;;;;;2.63;2.22;;;;;;;27.88;44.40;100869.31;5091232;28;20120;-66
2022/06/25 04:58:58;;;;;;;2.55;2.30;;;;;;;27.87;44.43;100870.28;5090141;28;20386;-66
2022/06/25 05:01:24;;;;;;;2.60;2.40;;;;;;;27.88;44.50;100872.00;5089648;28;20481;-67
2022/06/25 05:03:49;;;;;;;2.60;2.40;;;;;;;27.87;44.80;100864.06;5091078;28;20028;-67
2022/06/25 05:06:15;;;;;;;2.60;2.40;;;;;;;27.85;44.78;100867.69;5090880;28;20063;-67
2022/06/25 05:08:41;;;;;;;3.15;2.30;;;;;;;27.89;44.52;100880.91;5092413;28;20028;-66
2022/06/25 05:11:06;;;;;;;2.47;2.28;;;;;;;27.89;44.70;100878.22;5111545;28;20031;-67
2022/06/25 05:13:32;;;;;;;2.55;2.22;;;;;;;27.89;44.64;100879.09;5095962;28;20039;-66
2022/06/25 05:15:57;;;;;;;2.30;2.10;;;;;;;27.89;44.57;100878.22;5102583;28;20359;-67
2022/06/25 05:18:23;;;;;;;2.50;2.30;;;;;;;27.88;44.23;100877.34;5110223;28;20133;-67
2022/06/25 05:20:48;;;;;;;2.47;2.08;;;;;;;27.89;44.71;100883.56;5111086;28;20390;-66
2022/06/25 05:23:14;;;;;;;2.53;2.17;;;;;;;27.89;44.53;100887.13;5110963;28;20027;-67
2022/06/25 05:25:41;;;;;;;2.60;2.20;;;;;;;27.89;44.60;100878.22;5109541;28;20373;-67
2022/06/25 05:28:06;;;;;;;2.40;2.17;;;;;;;27.90;44.58;100883.50;5109001;28;20508;-67
2022/06/25 05:30:33;;;;;;;2.60;2.20;;;;;;;27.87;44.90;100883.69;5110810;28;20043;-66
2022/06/25 05:32:58;;;;;;;2.40;2.20;;;;;;;27.89;44.28;100899.66;5110693;28;20883;-67
2022/06/25 05:35:25;;;;;;;2.53;2.20;;;;;;;27.89;44.66;100895.16;5101314;28;20032;-67
2022/06/25 05:37:50;;;;;;;2.30;2.10;;;;;;;27.92;44.33;100904.84;5099610;28;20032;-67
2022/06/25 05:40:16;;;;;;;2.58;2.38;;;;;;;27.94;44.57;100895.75;5110123;28;20067;-66
2022/06/25 05:42:42;;;;;;;2.85;2.42;;;;;;;27.94;44.36;100903.78;5110574;28;20031;-67
2022/06/25 05:45:08;;;;;;;2.80;2.25;;;;;;;27.94;44.54;100900.25;5109128;28;20836;-66
2022/06/25 05:47:34;;;;;;;3.05;2.25;;;;;;;27.95;44.32;100913.56;5110446;28;20106;-66
2022/06/25 05:49:59;;;;;;;2.38;2.17;;;;;;;27.95;44.51;100910.88;5109487;28;20110;-67
2022/06/25 05:52:25;;;;;;;2.50;2.30;;;;;;;27.99;44.25;100908.91;5110294;28;20031;-66
2022/06/25 05:54:50;;;;;;;2.53;2.20;;;;;;;28.04;44.18;100910.38;5099778;28;20047;-67
2022/06/25 05:57:15;;;;;;;2.40;2.20;;;;;;;28.06;44.27;100911.13;5090073;28;20085;-67
2022/06/25 05:59:41;;;;;;;2.65;2.45;;;;;;;28.09;44.49;100913.63;5087787;28;20039;-68
2022/06/25 06:02:07;;;;;;;3.22;2.33;;;;;;;28.14;44.37;100927.66;5089173;28;20111;-67
2022/06/25 06:04:33;;;;;;;2.95;2.08;;;;;;;28.18;44.29;100925.66;5089659;28;20043;-66
2022/06/25 06:07:02;;;;;;;2.45;2.22;;;;;;;28.21;43.84;100928.16;5088429;28;20032;-67
2022/06/25 06:09:28;;;;;;;3.05;2.13;;;;;;;28.26;43.90;100939.47;5089395;28;20024;-67
2022/06/25 06:11:55;;;;;;;2.45;2.22;;;;;;;28.39;43.80;100936.94;5089785;28;20028;-67
2022/06/25 06:14:21;;;;;;;3.13;2.13;;;;;;;28.60;43.64;100939.22;5089098;28;20099;-67
2022/06/25 06:16:46;;;;;;;2.45;2.10;;;;;;;28.55;43.42;100935.03;5089705;28;20044;-67
2022/06/25 06:19:11;;;;;;;3.58;2.08;;;;;;;28.47;43.75;100940.03;5089274;28;20031;-67
2022/06/25 06:21:37;;;;;;;2.83;2.20;;;;;;;28.42;44.13;100940.28;5089570;28;20039;-67
2022/06/25 06:24:02;;;;;;;2.42;2.22;;;;;;;28.41;44.12;100953.81;5088678;28;20055;-67
2022/06/25 06:26:28;;;;;;;3.03;2.20;;;;;;;28.40;44.26;100954.75;5100722;28;20079;-67
2022/06/25 06:28:53;;;;;;;2.60;2.20;;;;;;;28.42;44.06;100963.59;5109663;28;20103;-67
2022/06/25 06:31:19;;;;;;;3.17;2.00;;;;;;;28.42;44.12;100955.53;5109534;28;20267;-66
2022/06/25 06:33:44;;;;;;;2.90;2.17;;;;;;;28.49;44.72;100960.41;5093664;28;20441;-65
2022/06/25 06:36:09;;;;;;;6.68;2.40;;;;;;;28.54;44.52;100968.22;5090214;28;20043;-64
2022/06/25 06:38:35;;;;;;;3.10;2.20;;;;;;;28.52;45.31;100964.75;5106920;28;20035;-69
2022/06/25 06:41:00;;;;;;;2.20;1.92;;;;;;;28.72;44.75;100969.78;5094249;28;20081;-67
2022/06/25 06:43:25;;;;;;;2.50;2.05;;;;;;;28.80;44.55;100967.53;5101006;28;20152;-68
2022/06/25 06:45:51;;;;;;;2.88;2.10;;;;;;;28.88;44.16;100961.69;5057886;28;20052;-68
2022/06/25 06:48:16;;;;;;;2.10;1.90;;;;;;;28.92;44.64;100968.59;5046075;28;20816;-72
2022/06/25 06:50:41;;;;;;;4.43;2.22;;;;;;;28.96;44.31;100967.47;5048454;28;20432;-67
2022/06/25 06:53:07;;;;;;;2.60;2.00;;;;;;;28.96;44.18;100971.00;5046863;28;20036;-73
2022/06/25 06:55:33;;;;;;;3.40;2.05;;;;;;;28.97;44.27;100966.50;5050856;28;20025;-67
2022/06/25 06:57:58;;;;;;;4.70;2.10;;;;;;;29.02;44.64;100981.38;5052529;28;20530;-71
2022/06/25 07:00:23;;;;;;;3.53;2.20;;;;;;;29.07;44.53;100980.22;5044294;28;20109;-73
2022/06/25 07:02:49;;;;;;;4.85;1.92;;;;;;;29.11;44.17;100977.25;5059156;28;20052;-66
2022/06/25 07:05:14;;;;;;;3.33;1.90;;;;;;;29.15;43.96;100977.94;5058203;28;20028;-69
2022/06/25 07:07:39;;;;;;;3.40;2.08;;;;;;;29.17;44.32;100984.03;5047353;28;20120;-72
2022/06/25 07:10:05;;;;;;;4.90;1.90;;;;;;;29.16;43.99;100985.00;5047858;28;20037;-72
2022/06/25 07:12:31;;;;;;;2.97;1.90;;;;;;;29.19;44.18;100983.00;5047465;28;20052;-68
2022/06/25 07:14:57;;;;;;;3.40;1.77;;;;;;;29.24;44.40;100990.75;5047522;28;20033;-68
2022/06/25 07:17:22;;;;;;;3.63;1.83;;;;;;;29.24;44.40;100983.56;5047443;28;20029;-68
2022/06/25 07:19:47;;;;;;;6.97;2.20;;;;;;;29.26;44.24;100984.34;5045722;28;20017;-68
2022/06/25 07:22:12;;;;;;;5.82;2.05;;;;;;;29.26;44.49;100980.81;5047053;28;20595;-69
2022/06/25 07:24:38;;;;;;;4.45;2.00;;;;;;;29.28;43.96;100981.56;5047817;28;20399;-69
2022/06/25 07:27:03;;;;;;;3.33;2.00;;;;;;;29.28;44.06;100989.59;5047554;28;20062;-69
2022/06/25 07:29:29;;;;;;;6.28;2.25;;;;;;;29.27;44.18;100987.91;5046942;28;20522;-69
2022/06/25 07:31:56;;;;;;;4.07;2.20;;;;;;;29.30;43.31;100990.38;5055735;28;20036;-69
2022/06/25 07:34:22;;;;;;;6.03;2.30;;;;;;;29.26;43.18;100980.81;5060435;28;20030;-69
2022/06/25 07:36:47;;;;;;;4.68;2.30;;;;;;;29.28;43.52;100989.59;5055805;28;20475;-69
2022/06/25 07:39:12;;;;;;;5.85;2.38;;;;;;;29.26;43.20;100997.78;5059290;28;20403;-68
2022/06/25 07:41:38;;;;;;;6.18;2.45;;;;;;;29.24;43.00;100994.31;5054165;28;20057;-68
2022/06/25 07:44:03;;;;;;;4.55;2.15;;;;;;;29.23;43.46;101000.66;5044716;28;20078;-67
2022/06/25 07:46:29;;;;;;;6.70;2.50;;;;;;;29.24;42.93;100990.75;5049100;28;20119;-67
2022/06/25 07:48:54;;;;;;;4.35;2.30;;;;;;;29.24;43.03;100991.63;5055323;28;20037;-69
2022/06/25 07:54:03;;;;;;;9.27;2.30;;;;;;;29.29;43.09;100986.84;5055154;28;20044;-68
2022/06/25 07:56:29;;;;;;;4.15;2.00;;;;;;;29.30;42.67;100993.94;5066177;28;20036;-68
2022/06/25 07:58:54;;;;;;;8.43;2.28;;;;;;;29.30;42.71;100991.25;5053096;28;20035;-68
2022/06/25 08:01:20;;;;;;;4.30;2.20;;;;;;;29.31;42.33;100992.13;5056998;28;20033;-68
2022/06/25 08:03:45;;;;;;;6.18;2.00;;;;;;;29.32;42.50;100993.84;5047396;28;20086;-68
2022/06/25 08:06:12;;;;;;;7.10;2.25;;;;;;;29.30;42.63;100998.44;5057611;28;20067;-68
2022/06/25 08:08:39;;;;;;;6.57;2.15;;;;;;;29.31;42.87;101000.16;5060455;28;20600;-68
2022/06/25 08:11:04;;;;;;;5.57;2.10;;;;;;;29.32;42.38;101001.91;5054638;28;20483;-74
2022/06/25 08:13:30;;;;;;;4.82;2.10;;;;;;;29.34;42.67;101003.56;5057632;28;20035;-74
2022/06/25 08:15:55;;;;;;;5.28;2.00;;;;;;;29.39;42.56;101014.03;5031901;28;20510;-74
2022/06/25 08:18:21;;;;;;;6.85;2.30;;;;;;;29.44;42.45;101009.22;5045803;28;20036;-73
2022/06/25 08:20:46;;;;;;;6.10;2.00;;;;;;;29.49;42.50;101008.94;5057299;28;20025;-73
2022/06/25 08:23:11;;;;;;;4.43;2.35;;;;;;;29.44;42.53;101004.72;5062088;28;20059;-74
2022/06/25 08:25:37;;;;;;;4.05;2.20;;;;;;;29.44;42.60;101011.91;5051234;28;20486;-73
2022/06/25 08:28:02;;;;;;;3.72;2.00;;;;;;;29.44;42.17;101018.16;5057469;28;20052;-74
2022/06/25 08:30:28;;;;;;;6.15;2.33;;;;;;;29.46;42.15;101017.19;5060933;28;20538;-74
2022/06/25 08:32:55;;;;;;;3.42;2.00;;;;;;;29.47;42.14;101022.44;5059110;28;20072;-74
2022/06/25 08:35:20;;;;;;;4.80;1.98;;;;;;;29.47;42.57;101024.28;5065390;28;20686;-74
2022/06/25 08:37:47;;;;;;;3.13;2.08;;;;;;;29.49;42.39;101028.59;5064447;28;20044;-74
2022/06/25 08:40:14;;;;;;;6.68;2.15;;;;;;;29.48;42.02;101024.19;5057456;28;20084;-74
2022/06/25 08:42:39;;;;;;;4.72;2.20;;;;;;;29.47;42.44;101026.94;5051521;28;20396;-74
2022/06/25 08:45:06;;;;;;;5.40;2.00;;;;;;;29.49;42.51;101025.91;5051103;28;20037;-74
2022/06/25 08:47:31;;;;;;;6.68;2.05;;;;;;;29.47;42.30;101030.50;5051060;28;20172;-74
2022/06/25 08:49:58;;;;;;;5.50;1.95;;;;;;;29.45;42.47;101029.75;5050228;28;20108;-74
2022/06/25 08:52:29;;;;;;;3.97;1.92;;;;;;;29.45;42.22;101029.75;5068085;28;20041;-74
2022/06/25 08:54:56;;;;;;;4.53;1.95;;;;;;;29.42;42.59;101032.63;5055129;28;20037;-74
2022/06/25 08:57:21;;;;;;;3.42;1.90;;;;;;;29.41;42.34;101028.19;5050936;28;20025;-74
2022/06/25 08:59:47;;;;;;;3.40;1.80;;;;;;;29.40;42.19;101026.47;5060045;28;20090;-74
2022/06/25 09:02:12;;;;;;;2.50;1.70;;;;;;;29.40;42.35;101027.34;5070463;28;20028;-74
2022/06/25 09:04:38;;;;;;;3.90;2.03;;;;;;;29.43;42.15;101020.91;5070778;28;20052;-74
2022/06/25 09:07:11;;;;;;;3.58;1.75;;;;;;;29.43;42.21;101016.41;5062642;28;20064;-74
2022/06/25 09:09:36;;;;;;;8.50;2.07;;;;;;;29.44;42.13;101017.28;5059396;28;20035;-74
2022/06/25 09:12:05;;;;;;;5.63;1.92;;;;;;;29.46;42.44;101014.50;5066186;28;20370;-74
2022/06/25 09:14:32;;;;;;;4.28;1.73;;;;;;;29.44;42.46;101019.97;5069286;28;20093;-75
2022/06/25 09:17:01;;;;;;;2.90;1.73;;;;;;;29.46;42.28;101014.50;5060364;28;20059;-74
2022/06/25 09:19:40;;;;;;;3.85;1.80;;;;;;;29.44;42.42;101017.28;5057676;28;20379;-74
2022/06/25 09:22:09;;;;;;;3.00;1.80;;;;;;;29.42;42.26;101014.69;5067048;28;20024;-73
2022/06/25 09:24:39;;;;;;;4.05;1.75;;;;;;;29.42;42.33;101017.38;5051409;28;20483;-74
2022/06/25 09:27:04;;;;;;;2.30;1.60;;;;;;;29.41;42.71;101021.00;5055033;28;20031;-74
2022/06/25 09:29:44;;;;;;;4.47;1.70;;;;;;;29.40;42.64;101016.59;5050684;28;20021;-73
2022/06/25 09:32:10;;;;;;;2.45;1.70;;;;;;;29.41;42.40;101018.31;5067861;28;20029;-75
2022/06/25 09:34:37;;;;;;;2.90;1.90;;;;;;;29.44;42.21;101019.97;5061381;28;20037;-74
2022/06/25 09:37:23;;;;;;;2.42;1.60;;;;;;;29.44;42.60;101019.97;5067449;28;20055;-73
2022/06/25 09:39:50;;;;;;;2.60;1.60;;;;;;;29.46;42.47;101012.66;5057127;28;20056;-74
2022/06/25 09:42:26;;;;;;;2.75;1.70;;;;;;;29.47;42.21;101013.53;5053369;28;20029;-74
2022/06/25 09:45:12;;;;;;;2.95;1.60;;;;;;;29.44;42.75;101022.66;5052060;28;20028;-74
2022/06/25 09:47:43;;;;;;;2.92;1.70;;;;;;;29.48;42.32;101018.81;5069184;28;20522;-73
2022/06/25 09:50:16;;;;;;;3.97;1.70;;;;;;;29.48;42.27;101018.81;5063446;28;20028;-74
2022/06/25 09:52:49;;;;;;;;;;;;;;;29.50;42.19;101019.59;5062275;28;20052;-74
2022/06/25 09:55:15;;;;;;;3.05;1.50;;;;;;;29.51;42.14;101021.31;5060310;28;19912;-74
2022/06/25 09:57:43;;;;;;;2.85;1.58;;;;;;;29.48;42.55;101023.31;5061825;28;20058;-74
2022/06/25 10:00:10;;;;;;;2.70;1.60;;;;;;;29.46;42.39;101023.41;5058072;28;20578;-74
2022/06/25 10:02:36;;;;;;;2.78;1.52;;;;;;;29.45;42.64;101021.69;5052162;28;20032;-74
2022/06/25 10:05:03;;;;;;;2.63;1.73;;;;;;;29.44;42.32;101023.53;5060865;28;20537;-74
2022/06/25 10:10:19;;;;;;;2.25;1.50;;;;;;;29.46;42.67;101018.03;5062404;28;20043;-74
2022/06/25 10:12:46;;;;;;;3.42;1.58;;;;;;;29.44;42.40;101028.03;5048368;28;20123;-74
2022/06/25 10:15:15;;;;;;;2.80;1.65;;;;;;;29.44;42.35;101030.72;5059310;28;20424;-75
2022/06/25 10:17:40;;;;;;;2.88;1.70;;;;;;;29.43;42.65;101023.59;5068658;28;20032;-74
2022/06/25 10:20:07;;;;;;;3.38;1.70;;;;;;;29.44;42.56;101023.53;5067476;28;20025;-74
2022/06/25 10:22:32;;;;;;;3.08;1.60;;;;;;;29.47;42.91;101029.63;5051454;28;20063;-74
2022/06/25 10:25:00;;;;;;;2.15;1.45;;;;;;;29.44;42.80;101028.91;5065882;28;20060;-74
2022/06/25 10:27:26;;;;;;;5.93;1.60;;;;;;;29.50;42.56;101021.41;5058438;28;20036;-74
2022/06/25 10:29:54;;;;;;;2.63;1.63;;;;;;;29.50;42.21;101024.97;5065421;28;20467;-74
2022/06/25 10:32:19;;;;;;;2.28;1.45;;;;;;;29.51;42.29;101036.56;5068339;28;20052;-74
2022/06/25 10:34:56;;;;;;;2.85;1.50;;;;;;;29.49;42.70;101027.72;5064805;28;20033;-74
2022/06/25 10:37:22;;;;;;;2.10;1.50;;;;;;;29.51;42.74;101024.00;5066263;28;20036;-74
2022/06/25 10:39:55;;;;;;;2.92;1.60;;;;;;;29.50;42.67;101018.72;5058040;28;20055;-74
2022/06/25 10:45:04;;;;;;;3.22;1.50;;;;;;;29.46;42.62;101025.25;5062781;28;20135;-74
2022/06/25 10:47:39;;;;;;;2.47;1.60;;;;;;;29.44;42.32;101023.53;5057408;28;20111;-74
2022/06/25 10:50:31;;;;;;;1.50;1.33;;;;;;;29.43;42.74;101029.84;5067848;28;20095;-74
2022/06/25 10:53:05;;;;;;;2.15;1.40;;;;;;;29.42;42.36;101022.75;5049059;28;20052;-74
2022/06/25 10:55:35;;;;;;;2.22;1.50;;;;;;;29.43;43.01;101026.28;5058440;28;20032;-74
2022/06/25 10:58:10;;;;;;;3.28;1.58;;;;;;;29.41;42.28;101025.53;5053080;28;20075;-74
2022/06/25 11:00:48;;;;;;;2.17;1.50;;;;;;;29.41;42.64;101029.06;5046452;28;20205;-75
2022/06/25 11:03:36;;;;;;;2.03;1.50;;;;;;;29.41;42.58;101028.19;5047023;28;20083;-74
2022/06/25 11:06:32;;;;;;;1.90;1.48;;;;;;;29.39;42.31;101025.63;5046773;28;20029;-73
2022/06/25 11:09:13;;;;;;;2.20;1.40;;;;;;;29.39;42.61;101030.16;5046977;28;20033;-74
2022/06/25 11:11:43;;;;;;;2.13;1.20;;;;;;;29.39;42.30;101027.47;5062128;28;20047;-75
2022/06/25 11:14:24;;;;;;;2.35;1.55;;;;;;;29.40;42.68;101032.72;5048425;28;20025;-74
2022/06/25 11:16:51;;;;;;;2.47;1.50;;;;;;;29.40;42.24;101029.16;5066790;28;20036;-74
2022/06/25 11:19:17;;;;;;;1.85;1.50;;;;;;;29.39;42.31;101022.94;5058597;28;20434;-74
2022/06/25 11:21:45;;;;;;;3.05;1.30;;;;;;;29.41;42.36;101030.88;5068346;28;20085;-74
2022/06/25 11:24:10;;;;;;;1.80;1.30;;;;;;;29.42;42.43;101032.63;5057806;28;20114;-75
2022/06/25 11:29:22;;;;;;;1.83;1.30;;;;;;;29.41;42.64;101030.88;5064582;28;20039;-74
2022/06/25 11:31:50;;;;;;;2.67;1.40;;;;;;;29.42;42.41;101032.63;5059806;28;20071;-75
2022/06/25 11:34:20;;;;;;;1.83;1.35;;;;;;;29.41;42.66;101030.88;5047753;28;20036;-74
2022/06/25 11:37:09;;;;;;;2.33;1.33;;;;;;;29.42;42.15;101032.63;5046785;28;20032;-74
2022/06/25 11:39:35;;;;;;;1.33;1.15;;;;;;;29.39;42.71;101031.00;5048202;28;20047;-73
2022/06/25 11:42:02;;;;;;;2.35;1.50;;;;;;;29.41;42.64;101036.25;5067574;28;20051;-74
2022/06/25 11:44:37;;;;;;;2.05;1.40;;;;;;;29.39;42.68;101047.13;5068186;28;20081;-74